sensor_id;sensor_type;location;lat;lon;timestamp;temperature;humidity
26270;DHT22;15937;50.612;6.656;2023-06-14T00:01:54;15.80;99.90
26270;DHT22;15937;50.612;6.656;2023-06-14T00:05:56;16.00;99.90
26270;DHT22;15937;50.612;6.656;2023-06-14T00:09:58;15.70;99.90
26270;DHT22;15937;50.612;6.656;2023-06-14T00:14:00;15.50;99.90
26270;DHT22;15937;50.612;6.656;2023-06-14T00:18:02;15.50;99.90
26270;DHT22;15937;50.612;6.656;2023-06-14T00:22:04;15.90;99.90
26270;DHT22;15937;50.612;6.656;2023-06-14T00:26:05;15.40;99.90
26270;DHT22;15937;50.612;6.656;2023-06-14T00:30:07;15.50;99.90
26270;DHT22;15937;50.612;6.656;2023-06-14T00:34:09;15.70;99.90
26270;DHT22;15937;50.612;6.656;2023-06-14T00:38:11;15.40;99.90
26270;DHT22;15937;50.612;6.656;2023-06-14T00:42:22;15.50;99.90
26270;DHT22;15937;50.612;6.656;2023-06-14T00:46:24;15.80;99.90
26270;DHT22;15937;50.612;6.656;2023-06-14T00:50:26;15.00;99.90
26270;DHT22;15937;50.612;6.656;2023-06-14T00:54:27;15.20;99.90
26270;DHT22;15937;50.612;6.656;2023-06-14T00:58:29;15.30;99.90
26270;DHT22;15937;50.612;6.656;2023-06-14T01:02:32;15.10;99.90
26270;DHT22;15937;50.612;6.656;2023-06-14T01:06:38;15.10;99.90
26270;DHT22;15937;50.612;6.656;2023-06-14T01:14:54;14.70;99.90
26270;DHT22;15937;50.612;6.656;2023-06-14T01:18:56;15.00;99.90
26270;DHT22;15937;50.612;6.656;2023-06-14T01:22:59;15.10;99.90
26270;DHT22;15937;50.612;6.656;2023-06-14T01:27:01;15.20;99.90
26270;DHT22;15937;50.612;6.656;2023-06-14T01:31:03;15.30;99.90
26270;DHT22;15937;50.612;6.656;2023-06-14T01:35:06;14.40;99.90
26270;DHT22;15937;50.612;6.656;2023-06-14T01:39:09;14.70;99.90
26270;DHT22;15937;50.612;6.656;2023-06-14T01:43:13;14.70;99.90
26270;DHT22;15937;50.612;6.656;2023-06-14T01:47:15;14.80;99.90
26270;DHT22;15937;50.612;6.656;2023-06-14T01:51:17;15.00;99.90
26270;DHT22;15937;50.612;6.656;2023-06-14T01:55:18;15.00;99.90
26270;DHT22;15937;50.612;6.656;2023-06-14T01:59:23;14.80;99.90
26270;DHT22;15937;50.612;6.656;2023-06-14T02:03:24;14.80;99.90
26270;DHT22;15937;50.612;6.656;2023-06-14T02:07:26;14.60;99.90
26270;DHT22;15937;50.612;6.656;2023-06-14T02:11:28;14.40;99.90
26270;DHT22;15937;50.612;6.656;2023-06-14T02:15:30;14.40;99.90
26270;DHT22;15937;50.612;6.656;2023-06-14T02:19:35;14.20;99.90
26270;DHT22;15937;50.612;6.656;2023-06-14T02:23:37;14.50;99.90
26270;DHT22;15937;50.612;6.656;2023-06-14T02:27:39;14.40;99.90
26270;DHT22;15937;50.612;6.656;2023-06-14T02:31:42;14.00;99.90
26270;DHT22;15937;50.612;6.656;2023-06-14T02:35:43;14.00;99.90
26270;DHT22;15937;50.612;6.656;2023-06-14T02:39:45;13.90;99.90
26270;DHT22;15937;50.612;6.656;2023-06-14T02:43:47;14.00;99.90
26270;DHT22;15937;50.612;6.656;2023-06-14T02:47:48;13.90;99.90
26270;DHT22;15937;50.612;6.656;2023-06-14T02:51:51;13.70;99.90
26270;DHT22;15937;50.612;6.656;2023-06-14T02:55:53;13.70;99.90
26270;DHT22;15937;50.612;6.656;2023-06-14T02:59:56;13.80;99.90
26270;DHT22;15937;50.612;6.656;2023-06-14T03:03:58;13.80;99.90
26270;DHT22;15937;50.612;6.656;2023-06-14T03:08:00;13.80;99.90
26270;DHT22;15937;50.612;6.656;2023-06-14T03:12:01;13.70;99.90
26270;DHT22;15937;50.612;6.656;2023-06-14T03:16:04;13.70;99.90
26270;DHT22;15937;50.612;6.656;2023-06-14T03:20:06;13.80;99.90
26270;DHT22;15937;50.612;6.656;2023-06-14T03:24:08;14.00;99.90
26270;DHT22;15937;50.612;6.656;2023-06-14T03:28:10;13.60;99.90
26270;DHT22;15937;50.612;6.656;2023-06-14T03:32:11;13.40;99.90
26270;DHT22;15937;50.612;6.656;2023-06-14T03:36:13;13.50;99.90
26270;DHT22;15937;50.612;6.656;2023-06-14T03:40:15;13.30;99.90
26270;DHT22;15937;50.612;6.656;2023-06-14T03:44:18;13.30;99.90
26270;DHT22;15937;50.612;6.656;2023-06-14T03:48:20;13.50;99.90
26270;DHT22;15937;50.612;6.656;2023-06-14T03:52:21;13.70;99.90
26270;DHT22;15937;50.612;6.656;2023-06-14T03:56:24;13.70;99.90
26270;DHT22;15937;50.612;6.656;2023-06-14T04:00:26;13.90;99.90
26270;DHT22;15937;50.612;6.656;2023-06-14T04:04:28;13.40;99.90
26270;DHT22;15937;50.612;6.656;2023-06-14T04:08:30;13.80;99.90
26270;DHT22;15937;50.612;6.656;2023-06-14T04:12:32;13.90;99.90
26270;DHT22;15937;50.612;6.656;2023-06-14T04:16:33;14.00;99.90
26270;DHT22;15937;50.612;6.656;2023-06-14T04:20:38;14.20;99.90
26270;DHT22;15937;50.612;6.656;2023-06-14T04:24:43;14.20;99.90
26270;DHT22;15937;50.612;6.656;2023-06-14T04:28:50;14.40;99.90
26270;DHT22;15937;50.612;6.656;2023-06-14T04:32:54;14.30;99.90
26270;DHT22;15937;50.612;6.656;2023-06-14T04:36:57;14.50;99.90
26270;DHT22;15937;50.612;6.656;2023-06-14T04:41:01;14.90;99.90
26270;DHT22;15937;50.612;6.656;2023-06-14T04:45:03;15.00;99.90
26270;DHT22;15937;50.612;6.656;2023-06-14T04:49:05;14.90;99.90
26270;DHT22;15937;50.612;6.656;2023-06-14T04:53:07;14.70;99.90
26270;DHT22;15937;50.612;6.656;2023-06-14T04:57:09;15.00;99.90
26270;DHT22;15937;50.612;6.656;2023-06-14T05:01:15;15.30;99.90
26270;DHT22;15937;50.612;6.656;2023-06-14T05:05:16;15.70;99.90
26270;DHT22;15937;50.612;6.656;2023-06-14T05:09:19;16.10;99.90
26270;DHT22;15937;50.612;6.656;2023-06-14T05:13:21;15.80;99.90
26270;DHT22;15937;50.612;6.656;2023-06-14T05:17:24;15.90;99.90
26270;DHT22;15937;50.612;6.656;2023-06-14T05:21:26;16.20;99.90
26270;DHT22;15937;50.612;6.656;2023-06-14T05:25:28;16.60;99.90
26270;DHT22;15937;50.612;6.656;2023-06-14T05:29:29;16.90;99.90
26270;DHT22;15937;50.612;6.656;2023-06-14T05:33:31;17.20;99.90
26270;DHT22;15937;50.612;6.656;2023-06-14T05:37:33;17.10;99.90
26270;DHT22;15937;50.612;6.656;2023-06-14T05:41:35;17.10;99.90
26270;DHT22;15937;50.612;6.656;2023-06-14T05:45:36;17.50;99.90
26270;DHT22;15937;50.612;6.656;2023-06-14T05:49:38;17.80;99.90
26270;DHT22;15937;50.612;6.656;2023-06-14T05:53:40;17.60;99.90
26270;DHT22;15937;50.612;6.656;2023-06-14T05:57:41;18.10;99.90
26270;DHT22;15937;50.612;6.656;2023-06-14T06:01:43;18.30;99.90
26270;DHT22;15937;50.612;6.656;2023-06-14T06:05:45;18.40;99.40
26270;DHT22;15937;50.612;6.656;2023-06-14T06:09:46;19.30;94.70
26270;DHT22;15937;50.612;6.656;2023-06-14T06:13:48;18.90;96.60
26270;DHT22;15937;50.612;6.656;2023-06-14T06:17:50;18.60;96.40
26270;DHT22;15937;50.612;6.656;2023-06-14T06:21:57;18.70;96.10
26270;DHT22;15937;50.612;6.656;2023-06-14T06:25:58;19.60;94.70
26270;DHT22;15937;50.612;6.656;2023-06-14T06:30:00;19.40;94.00
26270;DHT22;15937;50.612;6.656;2023-06-14T06:34:02;19.70;95.30
26270;DHT22;15937;50.612;6.656;2023-06-14T06:38:04;20.00;92.10
26270;DHT22;15937;50.612;6.656;2023-06-14T06:42:06;20.10;92.60
26270;DHT22;15937;50.612;6.656;2023-06-14T06:46:08;20.40;91.10
26270;DHT22;15937;50.612;6.656;2023-06-14T06:50:09;20.60;90.20
26270;DHT22;15937;50.612;6.656;2023-06-14T06:54:11;20.00;88.80
26270;DHT22;15937;50.612;6.656;2023-06-14T06:58:13;20.00;89.40
26270;DHT22;15937;50.612;6.656;2023-06-14T07:02:15;20.50;87.60
26270;DHT22;15937;50.612;6.656;2023-06-14T07:06:17;19.70;87.60
26270;DHT22;15937;50.612;6.656;2023-06-14T07:10:20;20.80;86.10
26270;DHT22;15937;50.612;6.656;2023-06-14T07:14:21;20.90;86.20
26270;DHT22;15937;50.612;6.656;2023-06-14T07:18:24;21.10;81.60
26270;DHT22;15937;50.612;6.656;2023-06-14T07:22:26;21.00;83.60
26270;DHT22;15937;50.612;6.656;2023-06-14T07:26:27;20.60;82.70
26270;DHT22;15937;50.612;6.656;2023-06-14T07:30:29;21.20;81.90
26270;DHT22;15937;50.612;6.656;2023-06-14T07:34:31;21.10;80.60
26270;DHT22;15937;50.612;6.656;2023-06-14T07:38:33;21.50;80.00
26270;DHT22;15937;50.612;6.656;2023-06-14T07:42:35;21.60;79.10
26270;DHT22;15937;50.612;6.656;2023-06-14T07:46:39;22.10;76.70
26270;DHT22;15937;50.612;6.656;2023-06-14T07:50:42;21.70;74.20
26270;DHT22;15937;50.612;6.656;2023-06-14T07:54:43;21.80;74.00
26270;DHT22;15937;50.612;6.656;2023-06-14T07:58:45;21.90;73.70
26270;DHT22;15937;50.612;6.656;2023-06-14T08:02:47;22.00;71.80
26270;DHT22;15937;50.612;6.656;2023-06-14T08:06:49;22.10;71.10
26270;DHT22;15937;50.612;6.656;2023-06-14T08:10:50;22.20;70.30
26270;DHT22;15937;50.612;6.656;2023-06-14T08:14:52;22.00;69.30
26270;DHT22;15937;50.612;6.656;2023-06-14T08:19:13;22.50;69.80
26270;DHT22;15937;50.612;6.656;2023-06-14T08:23:15;22.60;69.00
26270;DHT22;15937;50.612;6.656;2023-06-14T08:27:20;22.50;68.20
26270;DHT22;15937;50.612;6.656;2023-06-14T08:31:22;22.50;68.50
26270;DHT22;15937;50.612;6.656;2023-06-14T08:35:24;22.60;67.10
26270;DHT22;15937;50.612;6.656;2023-06-14T08:39:26;23.00;66.00
26270;DHT22;15937;50.612;6.656;2023-06-14T08:43:27;23.10;65.40
26270;DHT22;15937;50.612;6.656;2023-06-14T08:47:29;22.60;65.10
26270;DHT22;15937;50.612;6.656;2023-06-14T08:51:43;23.00;64.30
26270;DHT22;15937;50.612;6.656;2023-06-14T08:55:44;23.00;63.30
26270;DHT22;15937;50.612;6.656;2023-06-14T08:59:47;23.30;62.80
26270;DHT22;15937;50.612;6.656;2023-06-14T09:03:53;23.40;62.50
26270;DHT22;15937;50.612;6.656;2023-06-14T09:07:58;23.30;63.00
26270;DHT22;15937;50.612;6.656;2023-06-14T09:12:06;23.30;61.80
26270;DHT22;15937;50.612;6.656;2023-06-14T09:16:08;23.30;61.20
26270;DHT22;15937;50.612;6.656;2023-06-14T09:20:10;23.50;61.90
26270;DHT22;15937;50.612;6.656;2023-06-14T09:24:13;22.70;62.70
26270;DHT22;15937;50.612;6.656;2023-06-14T09:28:15;22.80;62.20
26270;DHT22;15937;50.612;6.656;2023-06-14T09:32:17;22.90;59.80
26270;DHT22;15937;50.612;6.656;2023-06-14T09:36:22;23.60;58.00
26270;DHT22;15937;50.612;6.656;2023-06-14T09:40:24;23.50;56.70
26270;DHT22;15937;50.612;6.656;2023-06-14T09:44:25;23.60;57.60
26270;DHT22;15937;50.612;6.656;2023-06-14T09:48:29;23.00;58.50
26270;DHT22;15937;50.612;6.656;2023-06-14T09:52:31;23.10;57.20
26270;DHT22;15937;50.612;6.656;2023-06-14T09:56:44;23.80;57.10
26270;DHT22;15937;50.612;6.656;2023-06-14T10:00:46;23.20;55.30
26270;DHT22;15937;50.612;6.656;2023-06-14T10:04:50;23.70;54.90
26270;DHT22;15937;50.612;6.656;2023-06-14T10:08:56;23.40;52.90
26270;DHT22;15937;50.612;6.656;2023-06-14T10:12:58;23.60;55.10
26270;DHT22;15937;50.612;6.656;2023-06-14T10:17:10;23.90;56.00
26270;DHT22;15937;50.612;6.656;2023-06-14T10:25:28;23.50;54.00
26270;DHT22;15937;50.612;6.656;2023-06-14T10:29:30;24.10;53.80
26270;DHT22;15937;50.612;6.656;2023-06-14T10:33:56;24.20;53.20
26270;DHT22;15937;50.612;6.656;2023-06-14T10:38:05;23.30;56.10
26270;DHT22;15937;50.612;6.656;2023-06-14T10:42:07;23.50;54.10
26270;DHT22;15937;50.612;6.656;2023-06-14T10:46:18;24.20;54.90
26270;DHT22;15937;50.612;6.656;2023-06-14T10:50:27;24.10;52.90
26270;DHT22;15937;50.612;6.656;2023-06-14T10:54:31;24.00;52.30
26270;DHT22;15937;50.612;6.656;2023-06-14T10:58:32;24.00;52.90
26270;DHT22;15937;50.612;6.656;2023-06-14T11:06:59;23.90;52.70
26270;DHT22;15937;50.612;6.656;2023-06-14T11:11:07;24.00;54.10
26270;DHT22;15937;50.612;6.656;2023-06-14T11:15:09;24.20;53.70
26270;DHT22;15937;50.612;6.656;2023-06-14T11:19:11;24.50;52.80
26270;DHT22;15937;50.612;6.656;2023-06-14T11:23:12;24.80;52.60
26270;DHT22;15937;50.612;6.656;2023-06-14T11:27:14;24.60;50.80
26270;DHT22;15937;50.612;6.656;2023-06-14T11:31:16;24.30;51.00
26270;DHT22;15937;50.612;6.656;2023-06-14T11:35:18;24.50;51.80
26270;DHT22;15937;50.612;6.656;2023-06-14T11:39:23;24.80;51.90
26270;DHT22;15937;50.612;6.656;2023-06-14T11:43:25;25.00;51.90
26270;DHT22;15937;50.612;6.656;2023-06-14T11:47:38;25.20;51.50
26270;DHT22;15937;50.612;6.656;2023-06-14T11:51:39;25.20;49.40
26270;DHT22;15937;50.612;6.656;2023-06-14T11:55:44;25.30;50.10
26270;DHT22;15937;50.612;6.656;2023-06-14T11:59:48;25.30;50.40
26270;DHT22;15937;50.612;6.656;2023-06-14T12:03:50;24.60;49.30
26270;DHT22;15937;50.612;6.656;2023-06-14T12:07:58;24.60;50.60
26270;DHT22;15937;50.612;6.656;2023-06-14T12:12:01;24.30;51.90
26270;DHT22;15937;50.612;6.656;2023-06-14T12:16:03;24.00;51.60
26270;DHT22;15937;50.612;6.656;2023-06-14T12:20:05;24.70;51.90
26270;DHT22;15937;50.612;6.656;2023-06-14T12:24:11;25.40;52.00
26270;DHT22;15937;50.612;6.656;2023-06-14T12:28:14;25.60;50.40
26270;DHT22;15937;50.612;6.656;2023-06-14T12:32:16;25.60;50.00
26270;DHT22;15937;50.612;6.656;2023-06-14T12:36:18;25.70;49.60
26270;DHT22;15937;50.612;6.656;2023-06-14T12:40:21;24.40;50.40
26270;DHT22;15937;50.612;6.656;2023-06-14T12:44:22;24.70;51.30
26270;DHT22;15937;50.612;6.656;2023-06-14T12:48:24;24.20;51.50
26270;DHT22;15937;50.612;6.656;2023-06-14T12:52:26;25.10;51.90
26270;DHT22;15937;50.612;6.656;2023-06-14T12:56:28;25.40;51.20
26270;DHT22;15937;50.612;6.656;2023-06-14T13:00:29;25.20;51.90
26270;DHT22;15937;50.612;6.656;2023-06-14T13:04:32;25.20;51.80
26270;DHT22;15937;50.612;6.656;2023-06-14T13:08:33;25.20;52.00
26270;DHT22;15937;50.612;6.656;2023-06-14T13:12:35;24.60;51.20
26270;DHT22;15937;50.612;6.656;2023-06-14T13:16:36;24.70;51.40
26270;DHT22;15937;50.612;6.656;2023-06-14T13:20:39;25.50;50.90
26270;DHT22;15937;50.612;6.656;2023-06-14T13:24:40;25.70;52.20
26270;DHT22;15937;50.612;6.656;2023-06-14T13:28:42;25.10;51.90
26270;DHT22;15937;50.612;6.656;2023-06-14T13:32:48;25.20;52.80
26270;DHT22;15937;50.612;6.656;2023-06-14T13:36:52;25.40;51.80
26270;DHT22;15937;50.612;6.656;2023-06-14T13:40:53;25.20;52.00
26270;DHT22;15937;50.612;6.656;2023-06-14T13:44:55;25.20;53.30
26270;DHT22;15937;50.612;6.656;2023-06-14T13:48:57;25.10;53.70
26270;DHT22;15937;50.612;6.656;2023-06-14T13:52:59;25.60;52.90
26270;DHT22;15937;50.612;6.656;2023-06-14T13:57:01;25.50;53.30
26270;DHT22;15937;50.612;6.656;2023-06-14T14:01:03;25.40;52.30
26270;DHT22;15937;50.612;6.656;2023-06-14T14:05:05;25.40;51.90
26270;DHT22;15937;50.612;6.656;2023-06-14T14:09:08;25.20;51.70
26270;DHT22;15937;50.612;6.656;2023-06-14T14:13:09;25.40;51.40
26270;DHT22;15937;50.612;6.656;2023-06-14T14:17:11;25.40;51.30
26270;DHT22;15937;50.612;6.656;2023-06-14T14:21:13;25.30;50.70
26270;DHT22;15937;50.612;6.656;2023-06-14T14:25:15;25.10;50.30
26270;DHT22;15937;50.612;6.656;2023-06-14T14:29:17;24.80;50.50
26270;DHT22;15937;50.612;6.656;2023-06-14T14:33:18;25.10;52.00
26270;DHT22;15937;50.612;6.656;2023-06-14T14:37:20;24.70;50.70
26270;DHT22;15937;50.612;6.656;2023-06-14T14:41:22;25.00;51.40
26270;DHT22;15937;50.612;6.656;2023-06-14T14:45:24;25.00;49.80
26270;DHT22;15937;50.612;6.656;2023-06-14T14:49:26;24.80;50.00
26270;DHT22;15937;50.612;6.656;2023-06-14T14:53:27;24.90;52.20
26270;DHT22;15937;50.612;6.656;2023-06-14T14:57:29;24.90;53.00
26270;DHT22;15937;50.612;6.656;2023-06-14T15:01:31;24.60;53.60
26270;DHT22;15937;50.612;6.656;2023-06-14T15:05:33;24.80;53.80
26270;DHT22;15937;50.612;6.656;2023-06-14T15:09:35;24.70;53.30
26270;DHT22;15937;50.612;6.656;2023-06-14T15:13:37;24.50;54.10
26270;DHT22;15937;50.612;6.656;2023-06-14T15:17:38;24.40;54.50
26270;DHT22;15937;50.612;6.656;2023-06-14T15:21:40;24.40;55.20
26270;DHT22;15937;50.612;6.656;2023-06-14T15:25:42;24.70;54.20
26270;DHT22;15937;50.612;6.656;2023-06-14T15:29:44;24.70;53.90
26270;DHT22;15937;50.612;6.656;2023-06-14T15:33:48;24.70;53.80
26270;DHT22;15937;50.612;6.656;2023-06-14T15:37:50;25.00;53.70
26270;DHT22;15937;50.612;6.656;2023-06-14T15:41:52;24.40;53.50
26270;DHT22;15937;50.612;6.656;2023-06-14T15:45:53;24.50;52.80
26270;DHT22;15937;50.612;6.656;2023-06-14T15:49:55;24.30;53.90
26270;DHT22;15937;50.612;6.656;2023-06-14T15:53:57;24.40;53.90
26270;DHT22;15937;50.612;6.656;2023-06-14T15:57:59;24.60;53.80
26270;DHT22;15937;50.612;6.656;2023-06-14T16:02:00;24.50;53.20
26270;DHT22;15937;50.612;6.656;2023-06-14T16:06:02;24.60;54.10
26270;DHT22;15937;50.612;6.656;2023-06-14T16:10:04;24.60;54.00
26270;DHT22;15937;50.612;6.656;2023-06-14T16:14:06;24.70;54.90
26270;DHT22;15937;50.612;6.656;2023-06-14T16:18:08;24.80;54.00
26270;DHT22;15937;50.612;6.656;2023-06-14T16:22:12;24.90;53.60
26270;DHT22;15937;50.612;6.656;2023-06-14T16:26:19;24.60;53.70
26270;DHT22;15937;50.612;6.656;2023-06-14T16:30:21;24.30;54.90
26270;DHT22;15937;50.612;6.656;2023-06-14T16:34:23;24.70;55.00
26270;DHT22;15937;50.612;6.656;2023-06-14T16:43:28;24.50;54.30
26270;DHT22;15937;50.612;6.656;2023-06-14T16:47:30;24.80;52.90
26270;DHT22;15937;50.612;6.656;2023-06-14T16:51:32;25.10;53.00
26270;DHT22;15937;50.612;6.656;2023-06-14T16:55:33;25.20;53.40
26270;DHT22;15937;50.612;6.656;2023-06-14T16:59:37;25.40;53.40
26270;DHT22;15937;50.612;6.656;2023-06-14T17:03:39;25.10;53.40
26270;DHT22;15937;50.612;6.656;2023-06-14T17:07:41;25.10;53.10
26270;DHT22;15937;50.612;6.656;2023-06-14T17:11:43;25.00;53.80
26270;DHT22;15937;50.612;6.656;2023-06-14T17:15:45;25.50;53.50
26270;DHT22;15937;50.612;6.656;2023-06-14T17:19:47;26.10;52.30
26270;DHT22;15937;50.612;6.656;2023-06-14T17:23:49;26.50;51.80
26270;DHT22;15937;50.612;6.656;2023-06-14T17:27:52;25.80;51.70
26270;DHT22;15937;50.612;6.656;2023-06-14T17:31:54;26.00;52.00
26270;DHT22;15937;50.612;6.656;2023-06-14T17:35:56;26.30;51.50
26270;DHT22;15937;50.612;6.656;2023-06-14T17:40:06;25.40;51.60
26270;DHT22;15937;50.612;6.656;2023-06-14T17:44:08;25.70;52.20
26270;DHT22;15937;50.612;6.656;2023-06-14T17:48:11;25.60;52.60
26270;DHT22;15937;50.612;6.656;2023-06-14T17:52:13;25.60;51.80
26270;DHT22;15937;50.612;6.656;2023-06-14T17:56:15;25.50;51.80
26270;DHT22;15937;50.612;6.656;2023-06-14T18:00:17;26.00;51.60
26270;DHT22;15937;50.612;6.656;2023-06-14T18:04:19;26.20;51.50
26270;DHT22;15937;50.612;6.656;2023-06-14T18:08:21;25.40;51.20
26270;DHT22;15937;50.612;6.656;2023-06-14T18:12:23;25.30;52.50
26270;DHT22;15937;50.612;6.656;2023-06-14T18:16:25;24.90;53.00
26270;DHT22;15937;50.612;6.656;2023-06-14T18:20:31;24.60;53.30
26270;DHT22;15937;50.612;6.656;2023-06-14T18:24:34;24.40;54.50
26270;DHT22;15937;50.612;6.656;2023-06-14T18:28:36;24.40;54.00
26270;DHT22;15937;50.612;6.656;2023-06-14T18:32:38;24.10;54.60
26270;DHT22;15937;50.612;6.656;2023-06-14T18:36:39;23.70;55.20
26270;DHT22;15937;50.612;6.656;2023-06-14T18:40:42;23.90;55.70
26270;DHT22;15937;50.612;6.656;2023-06-14T18:44:44;23.80;55.90
26270;DHT22;15937;50.612;6.656;2023-06-14T18:48:46;23.30;57.10
26270;DHT22;15937;50.612;6.656;2023-06-14T18:52:49;23.50;56.70
26270;DHT22;15937;50.612;6.656;2023-06-14T18:56:51;23.50;56.80
26270;DHT22;15937;50.612;6.656;2023-06-14T19:00:53;23.20;57.70
26270;DHT22;15937;50.612;6.656;2023-06-14T19:04:55;23.00;58.10
26270;DHT22;15937;50.612;6.656;2023-06-14T19:08:57;22.70;58.70
26270;DHT22;15937;50.612;6.656;2023-06-14T19:12:58;22.70;58.70
26270;DHT22;15937;50.612;6.656;2023-06-14T19:17:00;22.70;59.00
26270;DHT22;15937;50.612;6.656;2023-06-14T19:21:02;22.50;59.30
26270;DHT22;15937;50.612;6.656;2023-06-14T19:25:04;22.30;59.40
26270;DHT22;15937;50.612;6.656;2023-06-14T19:29:09;22.30;60.20
26270;DHT22;15937;50.612;6.656;2023-06-14T19:33:14;22.40;60.90
26270;DHT22;15937;50.612;6.656;2023-06-14T19:37:29;22.20;62.00
26270;DHT22;15937;50.612;6.656;2023-06-14T19:42:09;21.90;62.20
26270;DHT22;15937;50.612;6.656;2023-06-14T19:46:11;21.90;62.70
26270;DHT22;15937;50.612;6.656;2023-06-14T19:50:19;21.70;62.60
26270;DHT22;15937;50.612;6.656;2023-06-14T19:54:22;21.50;63.40
26270;DHT22;15937;50.612;6.656;2023-06-14T19:58:24;21.30;63.50
26270;DHT22;15937;50.612;6.656;2023-06-14T20:02:35;21.20;64.00
26270;DHT22;15937;50.612;6.656;2023-06-14T20:06:39;21.00;64.70
26270;DHT22;15937;50.612;6.656;2023-06-14T20:10:42;20.80;65.00
26270;DHT22;15937;50.612;6.656;2023-06-14T20:14:47;20.70;65.80
26270;DHT22;15937;50.612;6.656;2023-06-14T20:18:49;20.60;66.40
26270;DHT22;15937;50.612;6.656;2023-06-14T20:22:53;20.20;68.30
26270;DHT22;15937;50.612;6.656;2023-06-14T20:27:06;19.80;69.10
26270;DHT22;15937;50.612;6.656;2023-06-14T20:31:08;19.80;70.10
26270;DHT22;15937;50.612;6.656;2023-06-14T20:35:12;19.70;71.00
26270;DHT22;15937;50.612;6.656;2023-06-14T20:39:15;19.80;72.00
26270;DHT22;15937;50.612;6.656;2023-06-14T20:43:17;19.50;72.40
26270;DHT22;15937;50.612;6.656;2023-06-14T20:47:19;18.60;75.80
26270;DHT22;15937;50.612;6.656;2023-06-14T20:51:22;18.60;77.80
26270;DHT22;15937;50.612;6.656;2023-06-14T20:55:24;18.70;77.80
26270;DHT22;15937;50.612;6.656;2023-06-14T20:59:26;18.70;79.10
26270;DHT22;15937;50.612;6.656;2023-06-14T21:03:27;18.60;80.60
26270;DHT22;15937;50.612;6.656;2023-06-14T21:07:29;18.00;84.50
26270;DHT22;15937;50.612;6.656;2023-06-14T21:11:31;17.70;87.00
26270;DHT22;15937;50.612;6.656;2023-06-14T21:15:33;17.60;90.70
26270;DHT22;15937;50.612;6.656;2023-06-14T21:19:35;17.60;92.10
26270;DHT22;15937;50.612;6.656;2023-06-14T21:23:39;17.70;92.80
26270;DHT22;15937;50.612;6.656;2023-06-14T21:27:40;17.40;93.70
26270;DHT22;15937;50.612;6.656;2023-06-14T21:31:42;17.60;94.20
26270;DHT22;15937;50.612;6.656;2023-06-14T21:35:44;17.60;94.30
26270;DHT22;15937;50.612;6.656;2023-06-14T21:39:46;17.60;93.80
26270;DHT22;15937;50.612;6.656;2023-06-14T21:43:48;17.00;96.40
26270;DHT22;15937;50.612;6.656;2023-06-14T21:47:50;17.10;97.40
26270;DHT22;15937;50.612;6.656;2023-06-14T21:51:52;17.40;97.00
26270;DHT22;15937;50.612;6.656;2023-06-14T21:55:54;17.40;96.60
26270;DHT22;15937;50.612;6.656;2023-06-14T21:59:55;17.40;96.00
26270;DHT22;15937;50.612;6.656;2023-06-14T22:03:57;17.40;94.80
26270;DHT22;15937;50.612;6.656;2023-06-14T22:07:59;17.40;94.70
26270;DHT22;15937;50.612;6.656;2023-06-14T22:12:01;17.50;93.40
26270;DHT22;15937;50.612;6.656;2023-06-14T22:16:03;17.40;93.10
26270;DHT22;15937;50.612;6.656;2023-06-14T22:20:07;16.90;94.80
26270;DHT22;15937;50.612;6.656;2023-06-14T22:24:09;16.60;96.30
26270;DHT22;15937;50.612;6.656;2023-06-14T22:28:11;17.00;94.80
26270;DHT22;15937;50.612;6.656;2023-06-14T22:32:13;17.20;94.40
26270;DHT22;15937;50.612;6.656;2023-06-14T22:36:16;17.10;94.50
26270;DHT22;15937;50.612;6.656;2023-06-14T22:40:18;16.50;97.50
26270;DHT22;15937;50.612;6.656;2023-06-14T22:44:20;16.10;99.90
26270;DHT22;15937;50.612;6.656;2023-06-14T22:48:23;15.90;99.90
26270;DHT22;15937;50.612;6.656;2023-06-14T22:52:25;15.90;99.90
26270;DHT22;15937;50.612;6.656;2023-06-14T22:56:33;15.90;99.90
26270;DHT22;15937;50.612;6.656;2023-06-14T23:00:34;15.80;99.90
26270;DHT22;15937;50.612;6.656;2023-06-14T23:04:36;16.10;99.90
26270;DHT22;15937;50.612;6.656;2023-06-14T23:13:44;16.30;99.90
26270;DHT22;15937;50.612;6.656;2023-06-14T23:17:49;16.40;99.90
26270;DHT22;15937;50.612;6.656;2023-06-14T23:21:52;16.40;99.90
26270;DHT22;15937;50.612;6.656;2023-06-14T23:30:29;16.20;99.90
26270;DHT22;15937;50.612;6.656;2023-06-14T23:34:34;16.10;99.90
26270;DHT22;15937;50.612;6.656;2023-06-14T23:38:36;16.00;99.90
26270;DHT22;15937;50.612;6.656;2023-06-14T23:42:49;16.10;99.90
26270;DHT22;15937;50.612;6.656;2023-06-14T23:46:52;16.20;99.90
26270;DHT22;15937;50.612;6.656;2023-06-14T23:50:58;16.50;99.90
26270;DHT22;15937;50.612;6.656;2023-06-14T23:54:59;16.80;99.50
26270;DHT22;15937;50.612;6.656;2023-06-14T23:59:05;16.40;99.40
